Terminal Aerodrome Forecast
Issued by NWS

Home | Current Version | Previous Version | Graphics & Text | Print | Product List | Glossary On
Versions: 1 2 3 4 5 6 7 8 9 10 11 12
000
FTUS43 KMPX 010521
TAFRWF
TAF
KRWF 010521Z 0106/0206 12002KT P6SM BKN150
     FM010900 12008KT P6SM VCSH SCT040 BKN080
     FM011600 14007KT P6SM BKN100=

USA.gov is the U.S. government's official web portal to all federal, state and local government web resources and services.